createdAt,value
2018-04-27T00:00:14.561Z,0
2018-04-27T00:01:16.942Z,0
2018-04-27T00:02:19.309Z,0
2018-04-27T00:03:21.680Z,0
2018-04-27T00:04:24.069Z,0
2018-04-27T00:05:26.444Z,0
2018-04-27T00:06:29.204Z,0
2018-04-27T00:07:31.587Z,0
2018-04-27T00:08:33.958Z,0
2018-04-27T00:09:36.329Z,0
2018-04-27T00:10:38.706Z,0
2018-04-27T00:11:41.091Z,0
2018-04-27T00:12:43.466Z,0
2018-04-27T00:13:45.834Z,0
2018-04-27T00:14:48.216Z,0
2018-04-27T00:15:50.599Z,0
2018-04-27T00:16:53.249Z,0
2018-04-27T00:17:55.622Z,0
2018-04-27T00:18:58.273Z,0
2018-04-27T00:20:01.040Z,0
2018-04-27T00:21:03.726Z,0
2018-04-27T00:22:06.091Z,0
2018-04-27T00:23:08.468Z,0
2018-04-27T00:24:10.842Z,0
2018-04-27T00:25:13.215Z,0
2018-04-27T00:26:15.990Z,0
2018-04-27T00:27:18.369Z,0
2018-04-27T00:28:21.009Z,0
2018-04-27T00:29:23.398Z,0
2018-04-27T00:30:26.158Z,0
2018-04-27T00:31:28.529Z,0
2018-04-27T00:32:30.913Z,0
2018-04-27T00:33:33.284Z,0
2018-04-27T00:34:35.937Z,0
2018-04-27T00:35:38.328Z,0
2018-04-27T00:36:40.695Z,0
2018-04-27T00:37:43.087Z,0
2018-04-27T00:38:45.461Z,0
2018-04-27T00:39:48.216Z,0
2018-04-27T00:40:50.596Z,0
2018-04-27T00:41:53.246Z,0
2018-04-27T00:42:55.629Z,0
2018-04-27T00:43:58.004Z,0
2018-04-27T00:45:00.368Z,0
2018-04-27T00:46:02.743Z,0
2018-04-27T00:47:05.125Z,0
2018-04-27T00:48:08.066Z,0
2018-04-27T00:49:10.443Z,0
2018-04-27T00:50:13.104Z,0
2018-04-27T00:51:15.468Z,0
2018-04-27T00:52:18.142Z,0
2018-04-27T00:53:20.517Z,0
2018-04-27T00:54:23.185Z,0
2018-04-27T00:55:25.568Z,0
2018-04-27T00:56:27.938Z,0
2018-04-27T00:57:30.593Z,0
2018-04-27T00:58:32.977Z,0
2018-04-27T00:59:35.344Z,0
2018-04-27T01:00:37.717Z,0
2018-04-27T01:01:40.111Z,0
2018-04-27T01:02:42.490Z,0
2018-04-27T01:03:44.871Z,0
2018-04-27T01:04:47.551Z,0
2018-04-27T01:05:49.920Z,0
2018-04-27T01:06:52.677Z,0
2018-04-27T01:07:55.052Z,0
2018-04-27T01:08:57.735Z,0
2018-04-27T01:10:00.110Z,0
2018-04-27T01:11:02.487Z,0
2018-04-27T01:12:04.858Z,0
2018-04-27T01:13:07.238Z,0
2018-04-27T01:14:09.617Z,0
2018-04-27T01:15:12.008Z,0
2018-04-27T01:16:14.761Z,0
2018-04-27T01:17:17.143Z,0
2018-04-27T01:18:19.514Z,0
2018-04-27T01:19:21.895Z,0
2018-04-27T01:20:24.265Z,0
2018-04-27T01:21:26.640Z,0
2018-04-27T01:22:29.007Z,0
2018-04-27T01:23:31.667Z,0
2018-04-27T01:24:34.043Z,0
2018-04-27T01:25:36.426Z,0
2018-04-27T01:26:39.080Z,0
2018-04-27T01:27:41.847Z,0
2018-04-27T01:28:44.220Z,0
2018-04-27T01:29:46.587Z,0
2018-04-27T01:30:48.964Z,0
2018-04-27T01:31:51.341Z,0
2018-04-27T01:32:53.718Z,0
2018-04-27T01:33:56.103Z,0
2018-04-27T01:34:58.462Z,0
2018-04-27T01:36:00.834Z,0
2018-04-27T01:37:03.229Z,0
2018-04-27T01:38:05.590Z,0
2018-04-27T01:39:07.975Z,0
2018-04-27T01:40:10.629Z,0
2018-04-27T01:41:13.006Z,0
2018-04-27T01:42:15.379Z,0
2018-04-27T01:43:17.765Z,0
2018-04-27T01:44:20.129Z,0
2018-04-27T01:45:22.795Z,0
2018-04-27T01:46:25.176Z,0
2018-04-27T01:47:27.561Z,0
2018-04-27T01:48:29.939Z,0
2018-04-27T01:49:32.322Z,0
2018-04-27T01:50:34.973Z,0
2018-04-27T01:51:37.349Z,0
2018-04-27T01:52:39.723Z,0
2018-04-27T01:53:42.102Z,0
2018-04-27T01:54:44.482Z,0
2018-04-27T01:55:47.171Z,0
2018-04-27T01:56:49.543Z,0
2018-04-27T01:57:51.934Z,0
2018-04-27T01:58:54.292Z,0
2018-04-27T01:59:56.676Z,0
2018-04-27T02:00:59.077Z,0
2018-04-27T02:02:01.442Z,0
2018-04-27T02:03:04.211Z,0
2018-04-27T02:04:06.592Z,0
2018-04-27T02:05:09.248Z,0
2018-04-27T02:06:11.628Z,0
2018-04-27T02:07:14.286Z,0
2018-04-27T02:08:16.953Z,0
2018-04-27T02:09:19.335Z,0
2018-04-27T02:10:22.080Z,0
2018-04-27T02:11:24.466Z,0
2018-04-27T02:12:27.233Z,0
2018-04-27T02:13:30.177Z,0
2018-04-27T02:14:32.838Z,0
2018-04-27T02:15:35.208Z,0
2018-04-27T02:16:37.579Z,0
2018-04-27T02:17:39.971Z,0
2018-04-27T02:18:42.348Z,0
2018-04-27T02:19:44.996Z,0
2018-04-27T02:20:47.947Z,0
2018-04-27T02:21:51.014Z,0
2018-04-27T02:22:53.403Z,0
2018-04-27T02:23:55.781Z,0
2018-04-27T02:24:58.157Z,0
2018-04-27T02:26:00.534Z,0
2018-04-27T02:27:02.911Z,0
2018-04-27T02:28:05.569Z,0
2018-04-27T02:29:07.940Z,0
2018-04-27T02:30:10.600Z,0
2018-04-27T02:31:13.548Z,0
2018-04-27T02:32:15.944Z,0
2018-04-27T02:33:18.601Z,0
2018-04-27T02:34:21.644Z,0
2018-04-27T02:35:24.980Z,0
2018-04-27T02:36:27.629Z,0
2018-04-27T02:37:30.003Z,0
2018-04-27T02:38:32.374Z,0
2018-04-27T02:39:34.761Z,0
2018-04-27T02:40:37.142Z,0
2018-04-27T02:41:39.806Z,0
2018-04-27T02:42:42.188Z,0
2018-04-27T02:43:44.845Z,0
2018-04-27T02:44:47.882Z,0
2018-04-27T02:45:51.114Z,0
2018-04-27T02:46:53.488Z,0
2018-04-27T02:47:56.432Z,0
2018-04-27T02:48:59.202Z,0
2018-04-27T02:50:01.925Z,0
2018-04-27T02:51:04.315Z,0
2018-04-27T02:52:07.261Z,0
2018-04-27T02:53:10.304Z,0
2018-04-27T02:54:12.970Z,0
2018-04-27T02:55:15.345Z,0
2018-04-27T02:56:18.010Z,0
2018-04-27T02:57:20.391Z,0
2018-04-27T02:58:23.441Z,0
2018-04-27T02:59:26.101Z,0
2018-04-27T03:00:28.482Z,0
2018-04-27T03:01:31.243Z,0
2018-04-27T03:02:33.634Z,0
2018-04-27T03:03:36.293Z,0
2018-04-27T03:04:38.671Z,0
2018-04-27T03:05:41.329Z,0
2018-04-27T03:06:43.693Z,0
2018-04-27T03:07:46.075Z,0
2018-04-27T03:08:48.828Z,0
2018-04-27T03:09:51.213Z,4
2018-04-27T03:10:53.872Z,4
2018-04-27T03:11:56.920Z,0
2018-04-27T03:13:00.171Z,0
2018-04-27T03:14:02.547Z,4
2018-04-27T03:15:05.209Z,4
2018-04-27T03:16:07.589Z,4
2018-04-27T03:17:10.244Z,4
2018-04-27T03:18:12.630Z,8
2018-04-27T03:19:15.276Z,8
2018-04-27T03:20:17.650Z,4
2018-04-27T03:21:20.030Z,8
2018-04-27T03:22:22.707Z,12
2018-04-27T03:23:25.090Z,12
2018-04-27T03:24:27.453Z,12
2018-04-27T03:25:30.111Z,16
2018-04-27T03:26:33.168Z,16
2018-04-27T03:27:35.547Z,20
2018-04-27T03:28:37.924Z,24
2018-04-27T03:29:40.310Z,32
2018-04-27T03:30:42.685Z,36
2018-04-27T03:31:45.369Z,40
2018-04-27T03:32:48.330Z,48
2018-04-27T03:33:50.693Z,56
2018-04-27T03:34:53.081Z,60
2018-04-27T03:35:55.454Z,72
2018-04-27T03:36:58.218Z,84
2018-04-27T03:38:01.249Z,96
2018-04-27T03:39:03.645Z,108
2018-04-27T03:40:06.014Z,120
2018-04-27T03:41:08.392Z,136
2018-04-27T03:42:10.768Z,148
2018-04-27T03:43:13.147Z,168
2018-04-27T03:44:15.521Z,188
2018-04-27T03:45:17.949Z,212
2018-04-27T03:46:20.263Z,240
2018-04-27T03:47:22.648Z,264
2018-04-27T03:48:25.021Z,288
2018-04-27T03:49:27.971Z,316
2018-04-27T03:50:30.353Z,348
2018-04-27T03:51:32.728Z,380
2018-04-27T03:52:35.107Z,412
2018-04-27T03:53:37.482Z,444
2018-04-27T03:54:39.862Z,468
2018-04-27T03:55:42.245Z,500
2018-04-27T03:56:44.625Z,552
2018-04-27T03:57:47.275Z,600
2018-04-27T03:58:49.648Z,640
2018-04-27T03:59:52.051Z,672
2018-04-27T04:00:54.421Z,704
2018-04-27T04:01:56.794Z,736
2018-04-27T04:02:59.453Z,772
2018-04-27T04:04:01.840Z,812
2018-04-27T04:05:04.204Z,856
2018-04-27T04:06:06.584Z,900
2018-04-27T04:07:08.961Z,948
2018-04-27T04:08:11.334Z,996
2018-04-27T04:09:13.721Z,1044
2018-04-27T04:10:16.370Z,1096
2018-04-27T04:11:18.736Z,1148
2018-04-27T04:12:21.408Z,1204
2018-04-27T04:13:23.784Z,1264
2018-04-27T04:14:26.813Z,1332
2018-04-27T04:15:29.196Z,1404
2018-04-27T04:16:31.579Z,1480
2018-04-27T04:17:33.954Z,1552
2018-04-27T04:18:36.343Z,1632
2018-04-27T04:19:38.707Z,1724
2018-04-27T04:20:41.087Z,1828
2018-04-27T04:21:43.473Z,1936
2018-04-27T04:22:45.845Z,2044
2018-04-27T04:23:48.228Z,2132
2018-04-27T04:24:50.878Z,2188
2018-04-27T04:25:53.532Z,2252
2018-04-27T04:26:55.905Z,2320
2018-04-27T04:27:58.281Z,2404
2018-04-27T04:29:00.653Z,2448
2018-04-27T04:30:03.310Z,2456
2018-04-27T04:31:05.685Z,2480
2018-04-27T04:32:08.066Z,2508
2018-04-27T04:33:10.439Z,2560
2018-04-27T04:34:12.819Z,2624
2018-04-27T04:35:15.481Z,2684
2018-04-27T04:36:17.864Z,2760
2018-04-27T04:37:20.243Z,2808
2018-04-27T04:38:22.669Z,2848
2018-04-27T04:39:25.341Z,2888
2018-04-27T04:40:27.717Z,2908
2018-04-27T04:41:30.097Z,2940
2018-04-27T04:42:32.466Z,2968
2018-04-27T04:43:34.843Z,3044
2018-04-27T04:44:37.214Z,3120
2018-04-27T04:45:39.610Z,3144
2018-04-27T04:46:41.985Z,3124
2018-04-27T04:47:44.357Z,3072
2018-04-27T04:48:46.734Z,3032
2018-04-27T04:49:49.115Z,3020
2018-04-27T04:50:51.492Z,3032
2018-04-27T04:51:53.856Z,3024
2018-04-27T04:52:56.239Z,3008
2018-04-27T04:53:58.608Z,2992
2018-04-27T04:55:00.988Z,2936
2018-04-27T04:56:03.665Z,2904
2018-04-27T04:57:06.028Z,2900
2018-04-27T04:58:08.690Z,2920
2018-04-27T04:59:11.354Z,2976
2018-04-27T05:00:14.038Z,2988
2018-04-27T05:01:16.693Z,2976
2018-04-27T05:02:19.068Z,2956
2018-04-27T05:03:21.446Z,3048
2018-04-27T05:04:23.835Z,3196
2018-04-27T05:05:26.212Z,3280
2018-04-27T05:06:28.587Z,3328
2018-04-27T05:07:30.964Z,3412
2018-04-27T05:08:33.624Z,3512
2018-04-27T05:09:35.993Z,3684
2018-04-27T05:10:38.505Z,3776
2018-04-27T05:11:40.750Z,3884
2018-04-27T05:12:43.130Z,3928
2018-04-27T05:13:45.509Z,4048
2018-04-27T05:14:48.267Z,4260
2018-04-27T05:15:50.645Z,4408
2018-04-27T05:16:53.307Z,4484
2018-04-27T05:17:55.684Z,4560
2018-04-27T05:18:58.065Z,4644
2018-04-27T05:20:00.825Z,4692
2018-04-27T05:21:03.203Z,4712
2018-04-27T05:22:05.576Z,4744
2018-04-27T05:23:07.960Z,4792
2018-04-27T05:24:10.355Z,4904
2018-04-27T05:25:12.715Z,5072
2018-04-27T05:26:15.085Z,5204
2018-04-27T05:27:17.470Z,5300
2018-04-27T05:28:19.841Z,5408
2018-04-27T05:29:22.224Z,5488
2018-04-27T05:30:24.595Z,5516
2018-04-27T05:31:27.257Z,5544
2018-04-27T05:32:29.921Z,5572
2018-04-27T05:33:32.291Z,5580
2018-04-27T05:34:34.658Z,5588
2018-04-27T05:35:37.323Z,5552
2018-04-27T05:36:39.995Z,5564
2018-04-27T05:37:42.656Z,5608
2018-04-27T05:38:45.029Z,5672
2018-04-27T05:39:47.403Z,5696
2018-04-27T05:40:49.782Z,5752
2018-04-27T05:41:52.167Z,5808
2018-04-27T05:42:55.221Z,6024
2018-04-27T05:43:57.600Z,6424
2018-04-27T05:44:59.987Z,6628
2018-04-27T05:46:02.369Z,6856
2018-04-27T05:47:04.741Z,7056
2018-04-27T05:48:07.124Z,7216
2018-04-27T05:49:09.499Z,7268
2018-04-27T05:50:11.875Z,7328
2018-04-27T05:51:14.253Z,7300
2018-04-27T05:52:17.013Z,7320
2018-04-27T05:53:19.381Z,7280
2018-04-27T05:54:21.763Z,7328
2018-04-27T05:55:24.408Z,7332
2018-04-27T05:56:26.802Z,7332
2018-04-27T05:57:29.737Z,7300
2018-04-27T05:58:32.118Z,7204
2018-04-27T05:59:34.499Z,7268
2018-04-27T06:00:37.159Z,7276
2018-04-27T06:01:39.815Z,7316
2018-04-27T06:02:42.193Z,7372
2018-04-27T06:03:44.573Z,7492
2018-04-27T06:04:46.949Z,7572
2018-04-27T06:05:49.322Z,7692
2018-04-27T06:06:52.398Z,7824
2018-04-27T06:07:54.773Z,8140
2018-04-27T06:08:57.157Z,8396
2018-04-27T06:09:59.848Z,8456
2018-04-27T06:11:02.639Z,8516
2018-04-27T06:12:05.023Z,8512
2018-04-27T06:13:07.783Z,8456
2018-04-27T06:14:10.157Z,8228
2018-04-27T06:15:12.919Z,8100
2018-04-27T06:16:15.287Z,8180
2018-04-27T06:17:17.656Z,8116
2018-04-27T06:18:20.043Z,8096
2018-04-27T06:19:22.425Z,8228
2018-04-27T06:20:25.171Z,8136
2018-04-27T06:21:27.559Z,8088
2018-04-27T06:22:30.220Z,7800
2018-04-27T06:23:32.613Z,7684
2018-04-27T06:24:35.276Z,7500
2018-04-27T06:25:37.658Z,7648
2018-04-27T06:26:40.325Z,7760
2018-04-27T06:27:42.719Z,8148
2018-04-27T06:28:45.098Z,8532
2018-04-27T06:29:47.465Z,8628
2018-04-27T06:30:50.129Z,8764
2018-04-27T06:31:52.852Z,8700
2018-04-27T06:32:55.633Z,8632
2018-04-27T06:33:58.016Z,8216
2018-04-27T06:35:00.384Z,8844
2018-04-27T06:36:03.034Z,8976
2018-04-27T06:37:05.431Z,9140
2018-04-27T06:38:08.081Z,9484
2018-04-27T06:39:10.759Z,9752
2018-04-27T06:40:13.414Z,10060
2018-04-27T06:41:15.794Z,10356
2018-04-27T06:42:18.171Z,10676
2018-04-27T06:43:20.843Z,10884
2018-04-27T06:44:23.214Z,10556
2018-04-27T06:45:25.591Z,11232
2018-04-27T06:46:28.260Z,11816
2018-04-27T06:47:30.638Z,12260
2018-04-27T06:48:33.017Z,12512
2018-04-27T06:49:35.390Z,12464
2018-04-27T06:50:38.052Z,12044
2018-04-27T06:51:40.432Z,12296
2018-04-27T06:52:42.814Z,12076
2018-04-27T06:53:45.188Z,12040
2018-04-27T06:54:47.564Z,12052
2018-04-27T06:55:49.949Z,12208
2018-04-27T06:56:52.325Z,12232
2018-04-27T06:57:55.095Z,12220
2018-04-27T06:58:57.458Z,12240
2018-04-27T06:59:59.837Z,12220
2018-04-27T07:01:02.246Z,12132
2018-04-27T07:02:05.484Z,12368
2018-04-27T07:03:07.862Z,12540
2018-04-27T07:04:10.247Z,12828
2018-04-27T07:05:12.638Z,13036
2018-04-27T07:06:15.017Z,13232
2018-04-27T07:07:17.671Z,13240
2018-04-27T07:08:20.065Z,13280
2018-04-27T07:09:22.726Z,13132
2018-04-27T07:10:25.117Z,12984
2018-04-27T07:11:27.510Z,13076
2018-04-27T07:12:29.889Z,13240
2018-04-27T07:13:32.275Z,13400
2018-04-27T07:14:34.661Z,13708
2018-04-27T07:15:37.049Z,14224
2018-04-27T07:16:39.436Z,14540
2018-04-27T07:17:41.811Z,14704
2018-04-27T07:18:44.200Z,14824
2018-04-27T07:19:46.593Z,14784
2018-04-27T07:20:48.976Z,14560
2018-04-27T07:21:51.640Z,14240
2018-04-27T07:22:54.031Z,14536
2018-04-27T07:23:56.797Z,14496
2018-04-27T07:24:59.196Z,14540
2018-04-27T07:26:01.853Z,14180
2018-04-27T07:27:04.233Z,13896
2018-04-27T07:28:06.621Z,13464
2018-04-27T07:29:09.288Z,12904
2018-04-27T07:30:11.676Z,12512
2018-04-27T07:31:14.066Z,12264
2018-04-27T07:32:16.738Z,12116
2018-04-27T07:33:19.123Z,11836
2018-04-27T07:34:21.492Z,11892
2018-04-27T07:35:23.880Z,12024
2018-04-27T07:36:26.262Z,12052
2018-04-27T07:37:28.646Z,12244
2018-04-27T07:38:31.035Z,12528
2018-04-27T07:39:33.436Z,12648
2018-04-27T07:40:35.794Z,12792
2018-04-27T07:41:38.472Z,12728
2018-04-27T07:42:40.852Z,13032
2018-04-27T07:43:43.243Z,13216
2018-04-27T07:44:45.623Z,13652
2018-04-27T07:45:48.008Z,14028
2018-04-27T07:46:50.399Z,14208
2018-04-27T07:47:52.787Z,13872
2018-04-27T07:48:55.161Z,13856
2018-04-27T07:49:57.548Z,14416
2018-04-27T07:50:59.931Z,14080
2018-04-27T07:52:02.315Z,14328
2018-04-27T07:53:04.703Z,14416
2018-04-27T07:54:07.087Z,14876
2018-04-27T07:55:09.464Z,15224
2018-04-27T07:56:11.861Z,15656
2018-04-27T07:57:14.250Z,15804
2018-04-27T07:58:16.921Z,15632
2018-04-27T07:59:19.306Z,15224
2018-04-27T08:00:21.685Z,15248
2018-04-27T08:01:24.073Z,15640
2018-04-27T08:02:26.498Z,16424
2018-04-27T08:03:29.713Z,17236
2018-04-27T08:04:32.096Z,26528
2018-04-27T08:05:34.474Z,64480
2018-04-27T08:06:37.139Z,80640
2018-04-27T08:07:39.531Z,64896
2018-04-27T08:08:41.903Z,65536
2018-04-27T08:09:44.297Z,81856
2018-04-27T08:10:46.676Z,80192
2018-04-27T08:11:49.055Z,78144
2018-04-27T08:12:51.447Z,83200
2018-04-27T08:13:53.829Z,83840
2018-04-27T08:14:56.216Z,83072
2018-04-27T08:15:58.606Z,96160
2018-04-27T08:17:01.000Z,109280
2018-04-27T08:18:03.383Z,108704
2018-04-27T08:19:06.446Z,100256
2018-04-27T08:20:08.818Z,92160
2018-04-27T08:21:11.480Z,85760
2018-04-27T08:22:14.137Z,99648
2018-04-27T08:23:16.514Z,85856
2018-04-27T08:24:18.904Z,81600
2018-04-27T08:25:21.562Z,84672
2018-04-27T08:26:23.954Z,99392
2018-04-27T08:27:26.625Z,92032
2018-04-27T08:28:29.007Z,88672
2018-04-27T08:29:31.682Z,44448
2018-04-27T08:30:34.067Z,28672
2018-04-27T08:31:36.447Z,72512
2018-04-27T08:32:38.838Z,77184
2018-04-27T08:33:41.533Z,20544
2018-04-27T08:34:43.922Z,75328
2018-04-27T08:35:46.593Z,71840
2018-04-27T08:36:49.267Z,78720
2018-04-27T08:37:51.649Z,83744
2018-04-27T08:38:54.041Z,96800
2018-04-27T08:39:56.708Z,100256
2018-04-27T08:40:59.098Z,104928
2018-04-27T08:42:01.478Z,121664
2018-04-27T08:43:04.170Z,121728
2018-04-27T08:44:06.548Z,110208
2018-04-27T08:45:08.940Z,99520
2018-04-27T08:46:11.318Z,92672
2018-04-27T08:47:13.702Z,82720
2018-04-27T08:48:16.407Z,88896
2018-04-27T08:49:18.799Z,86048
2018-04-27T08:50:21.307Z,81600
2018-04-27T08:51:23.919Z,71040
2018-04-27T08:52:26.879Z,73856
2018-04-27T08:53:29.555Z,79552
2018-04-27T08:54:32.453Z,88000
2018-04-27T08:55:34.856Z,92640
2018-04-27T08:56:37.542Z,25248
2018-04-27T08:57:39.941Z,80480
2018-04-27T08:58:42.341Z,26496
2018-04-27T08:59:45.141Z,77184
2018-04-27T09:00:48.995Z,23040
2018-04-27T09:01:52.229Z,88960
2018-04-27T09:02:54.648Z,20416
2018-04-27T09:03:57.326Z,41632
2018-04-27T09:05:00.302Z,18632
2018-04-27T09:06:02.974Z,21312
2018-04-27T09:07:05.697Z,28896
2018-04-27T09:08:08.376Z,29984
2018-04-27T09:09:10.786Z,105408
2018-04-27T09:10:13.445Z,96480
2018-04-27T09:11:16.145Z,102304
2018-04-27T09:12:18.527Z,18104
2018-04-27T09:13:21.194Z,107424
2018-04-27T09:14:23.596Z,117440
2018-04-27T09:15:26.017Z,128224
2018-04-27T09:16:28.446Z,138752
2018-04-27T09:17:30.850Z,157952
2018-04-27T09:18:33.230Z,141920
2018-04-27T09:19:35.947Z,113152
2018-04-27T09:20:38.625Z,21728
2018-04-27T09:21:41.069Z,80832
2018-04-27T09:22:43.859Z,33792
2018-04-27T09:23:46.298Z,51200
2018-04-27T09:24:48.674Z,114624
2018-04-27T09:25:51.079Z,47968
2018-04-27T09:26:53.502Z,120960
2018-04-27T09:27:55.846Z,111648
2018-04-27T09:28:58.247Z,80832
2018-04-27T09:30:00.685Z,17820
2018-04-27T09:31:03.354Z,19584
2018-04-27T09:32:05.788Z,27968
2018-04-27T09:33:08.172Z,99808
2018-04-27T09:34:10.553Z,129088
2018-04-27T09:35:12.957Z,138048
2018-04-27T09:36:15.354Z,35072
2018-04-27T09:37:17.750Z,96480
2018-04-27T09:38:20.151Z,115648
2018-04-27T09:39:22.897Z,113376
2018-04-27T09:40:25.273Z,122400
2018-04-27T09:41:27.708Z,31584
2018-04-27T09:42:30.207Z,28768
2018-04-27T09:43:32.890Z,89024
2018-04-27T09:44:35.569Z,15236
2018-04-27T09:45:37.944Z,14616
2018-04-27T09:46:40.611Z,17852
2018-04-27T09:47:43.008Z,120928
2018-04-27T09:48:45.397Z,137568
2018-04-27T09:49:47.789Z,127488
2018-04-27T09:50:50.229Z,119616
2018-04-27T09:51:52.566Z,128160
2018-04-27T09:52:54.965Z,122784
2018-04-27T09:53:57.641Z,123744
2018-04-27T09:55:00.316Z,127744
2018-04-27T09:56:02.707Z,127968
2018-04-27T09:57:05.098Z,32896
2018-04-27T09:58:07.497Z,115616
2018-04-27T09:59:09.884Z,115296
2018-04-27T10:00:12.282Z,114752
2018-04-27T10:01:14.676Z,114240
2018-04-27T10:02:17.347Z,114752
2018-04-27T10:03:19.748Z,114784
2018-04-27T10:04:22.139Z,31392
2018-04-27T10:05:24.538Z,42496
2018-04-27T10:06:26.926Z,112416
2018-04-27T10:07:29.317Z,105888
2018-04-27T10:08:31.714Z,124480
2018-04-27T10:09:34.107Z,127296
2018-04-27T10:10:36.507Z,116832
2018-04-27T10:11:38.892Z,114016
2018-04-27T10:12:41.559Z,114464
2018-04-27T10:13:43.964Z,122208
2018-04-27T10:14:46.362Z,121792
2018-04-27T10:15:48.751Z,119968
2018-04-27T10:16:51.142Z,125472
2018-04-27T10:17:53.539Z,123104
2018-04-27T10:18:55.937Z,116864
2018-04-27T10:19:58.337Z,114368
2018-04-27T10:21:00.733Z,117472
2018-04-27T10:22:03.125Z,107136
2018-04-27T10:23:05.524Z,96608
2018-04-27T10:24:07.925Z,101824
2018-04-27T10:25:10.604Z,120032
2018-04-27T10:26:12.998Z,112736
2018-04-27T10:27:15.380Z,26144
2018-04-27T10:28:17.780Z,114656
2018-04-27T10:29:20.170Z,114400
2018-04-27T10:30:22.567Z,120096
2018-04-27T10:31:24.961Z,130208
2018-04-27T10:32:27.362Z,22272
2018-04-27T10:33:29.756Z,125600
2018-04-27T10:34:32.150Z,28224
2018-04-27T10:35:34.540Z,31904
2018-04-27T10:36:37.318Z,22016
2018-04-27T10:37:39.710Z,130368
2018-04-27T10:38:42.404Z,107008
2018-04-27T10:39:44.803Z,133600
2018-04-27T10:40:47.201Z,22528
2018-04-27T10:41:49.598Z,123072
2018-04-27T10:42:52.662Z,134048
2018-04-27T10:43:55.065Z,131424
2018-04-27T10:44:57.447Z,119904
2018-04-27T10:45:59.837Z,118112
2018-04-27T10:47:02.249Z,120416
2018-04-27T10:48:04.938Z,102048
2018-04-27T10:49:07.621Z,135712
2018-04-27T10:50:10.039Z,123136
2018-04-27T10:51:13.503Z,117248
2018-04-27T10:52:15.897Z,38752
2018-04-27T10:53:18.296Z,129344
2018-04-27T10:54:20.676Z,77920
2018-04-27T10:55:23.074Z,26464
2018-04-27T10:56:25.763Z,24960
2018-04-27T10:57:28.152Z,123776
2018-04-27T10:58:30.546Z,29728
2018-04-27T10:59:32.957Z,134144
2018-04-27T11:00:35.353Z,140448
2018-04-27T11:01:37.752Z,32640
2018-04-27T11:02:40.153Z,36544
2018-04-27T11:03:42.545Z,83488
2018-04-27T11:04:44.934Z,38912
2018-04-27T11:05:47.326Z,36224
2018-04-27T11:06:49.718Z,42496
2018-04-27T11:07:52.385Z,38176
2018-04-27T11:08:54.797Z,34240
2018-04-27T11:09:57.182Z,37344
2018-04-27T11:10:59.599Z,35488
2018-04-27T11:12:02.421Z,40512
2018-04-27T11:13:05.090Z,125920
2018-04-27T11:14:07.491Z,46464
2018-04-27T11:15:09.878Z,147488
2018-04-27T11:16:12.372Z,151136
2018-04-27T11:17:14.667Z,162464
2018-04-27T11:18:17.068Z,152544
2018-04-27T11:19:19.757Z,141088
2018-04-27T11:20:22.419Z,25440
2018-04-27T11:21:24.827Z,25664
2018-04-27T11:22:27.220Z,27456
2018-04-27T11:23:29.618Z,30944
2018-04-27T11:24:32.012Z,135808
2018-04-27T11:25:34.409Z,144256
2018-04-27T11:26:37.085Z,34336
2018-04-27T11:27:39.486Z,33888
2018-04-27T11:28:42.155Z,37632
2018-04-27T11:29:44.979Z,131680
2018-04-27T11:30:47.658Z,128032
2018-04-27T11:31:50.055Z,127296
2018-04-27T11:32:52.721Z,127232
2018-04-27T11:33:55.113Z,125536
2018-04-27T11:34:57.899Z,27072
2018-04-27T11:36:00.580Z,29216
2018-04-27T11:37:03.251Z,26720
2018-04-27T11:38:06.023Z,27968
2018-04-27T11:39:08.421Z,64192
2018-04-27T11:40:10.817Z,42240
2018-04-27T11:41:13.225Z,29440
2018-04-27T11:42:16.784Z,31744
2018-04-27T11:43:19.146Z,29984
2018-04-27T11:44:21.818Z,28096
2018-04-27T11:45:24.220Z,33728
2018-04-27T11:46:26.614Z,33728
2018-04-27T11:47:29.010Z,34336
2018-04-27T11:48:31.693Z,36960
2018-04-27T11:49:34.080Z,82496
2018-04-27T11:50:36.859Z,45824
2018-04-27T11:51:39.249Z,63584
2018-04-27T11:52:41.942Z,119680
2018-04-27T11:53:44.623Z,110432
2018-04-27T11:54:47.011Z,119264
2018-04-27T11:55:49.404Z,121216
2018-04-27T11:56:51.796Z,114016
2018-04-27T11:57:55.135Z,113152
2018-04-27T11:58:57.522Z,75232
2018-04-27T11:59:59.943Z,107136
2018-04-27T12:01:02.337Z,114688
2018-04-27T12:02:04.731Z,125280
2018-04-27T12:03:07.124Z,123488
2018-04-27T12:04:09.520Z,121856
2018-04-27T12:05:11.916Z,93248
2018-04-27T12:06:14.594Z,83040
2018-04-27T12:07:16.979Z,105568
2018-04-27T12:08:19.387Z,106624
2018-04-27T12:09:21.784Z,113408
2018-04-27T12:10:24.181Z,43360
2018-04-27T12:11:26.581Z,79584
2018-04-27T12:12:28.968Z,122816
2018-04-27T12:13:32.029Z,122048
2018-04-27T12:14:34.423Z,116576
2018-04-27T12:15:37.091Z,109056
2018-04-27T12:16:39.793Z,106208
2018-04-27T12:17:42.508Z,42720
2018-04-27T12:18:44.902Z,39008
2018-04-27T12:19:47.291Z,100928
2018-04-27T12:20:49.691Z,107360
2018-04-27T12:21:52.085Z,38400
2018-04-27T12:22:54.489Z,63328
2018-04-27T12:23:56.886Z,36384
2018-04-27T12:24:59.272Z,60224
2018-04-27T12:26:01.672Z,84928
2018-04-27T12:27:04.359Z,89312
2018-04-27T12:28:06.755Z,87488
2018-04-27T12:29:09.148Z,83264
2018-04-27T12:30:11.547Z,82368
2018-04-27T12:31:14.074Z,84288
2018-04-27T12:32:16.848Z,85408
2018-04-27T12:33:19.243Z,76448
2018-04-27T12:34:21.638Z,84800
2018-04-27T12:35:24.035Z,78304
2018-04-27T12:36:26.483Z,69024
2018-04-27T12:37:29.308Z,62944
2018-04-27T12:38:32.134Z,54112
2018-04-27T12:39:34.522Z,37792
2018-04-27T12:40:36.925Z,26720
2018-04-27T12:41:39.323Z,25344
2018-04-27T12:42:41.705Z,23968
2018-04-27T12:43:44.199Z,27008
2018-04-27T12:44:46.981Z,32672
2018-04-27T12:45:49.378Z,31488
2018-04-27T12:46:52.403Z,30368
2018-04-27T12:47:57.149Z,31648
2018-04-27T12:48:59.600Z,31648
2018-04-27T12:50:02.687Z,32352
2018-04-27T12:51:05.133Z,30784
2018-04-27T12:52:07.586Z,30176
2018-04-27T12:53:10.323Z,32256
2018-04-27T12:54:12.715Z,32192
2018-04-27T12:55:15.152Z,30880
2018-04-27T12:56:17.534Z,30880
2018-04-27T12:57:19.946Z,32800
2018-04-27T12:58:22.775Z,33088
2018-04-27T12:59:25.251Z,34176
2018-04-27T13:00:28.055Z,35520
2018-04-27T13:01:30.472Z,36032
2018-04-27T13:02:33.033Z,38688
2018-04-27T13:03:35.419Z,41600
2018-04-27T13:04:38.865Z,44224
2018-04-27T13:05:41.938Z,52736
2018-04-27T13:06:44.340Z,46976
2018-04-27T13:07:47.106Z,54400
2018-04-27T13:08:53.005Z,59552
2018-04-27T13:09:56.093Z,53376
2018-04-27T13:10:59.082Z,56640
2018-04-27T13:12:02.166Z,57792
2018-04-27T13:13:05.766Z,62208
2018-04-27T13:14:09.728Z,67456
2018-04-27T13:15:12.204Z,72608
2018-04-27T13:16:14.858Z,65760
2018-04-27T13:17:17.848Z,59968
2018-04-27T13:18:20.559Z,57760
2018-04-27T13:19:22.952Z,61280
2018-04-27T13:20:25.630Z,61216
2018-04-27T13:21:28.325Z,63648
2018-04-27T13:22:30.708Z,65888
2018-04-27T13:23:33.763Z,69120
2018-04-27T13:24:36.172Z,59680
2018-04-27T13:25:38.861Z,54464
2018-04-27T13:26:41.547Z,51616
2018-04-27T13:27:43.924Z,45664
2018-04-27T13:28:46.328Z,31520
2018-04-27T13:29:48.710Z,27840
2018-04-27T13:30:51.376Z,24896
2018-04-27T13:31:54.510Z,22432
2018-04-27T13:32:56.896Z,20064
2018-04-27T13:33:59.580Z,18096
2018-04-27T13:35:01.976Z,17176
2018-04-27T13:36:04.652Z,17100
2018-04-27T13:37:07.054Z,17204
2018-04-27T13:38:09.452Z,17504
2018-04-27T13:39:11.832Z,18784
2018-04-27T13:40:14.508Z,36736
2018-04-27T13:41:17.488Z,22368
2018-04-27T13:42:19.888Z,21120
2018-04-27T13:43:22.573Z,24000
2018-04-27T13:44:24.959Z,29696
2018-04-27T13:45:27.635Z,28864
2018-04-27T13:46:30.342Z,29056
2018-04-27T13:47:33.017Z,25216
2018-04-27T13:48:35.396Z,24544
2018-04-27T13:49:38.472Z,23488
2018-04-27T13:50:41.164Z,20704
2018-04-27T13:51:43.848Z,17112
2018-04-27T13:52:46.242Z,14116
2018-04-27T13:53:48.916Z,12004
2018-04-27T13:54:51.313Z,10528
2018-04-27T13:55:53.714Z,10132